Grandfalls, Texas
Current Conditions -  °F | °C
As of 6:53 PM on Thursday 27 Nov 2014 (Local Time) from KFST Reporting Station
Clear Clear  
Wind Chill: 56°   Ceiling: Unl
Heat Index: 56°   Visibility: 10mi
Dew Point: 29°   Wind: 12mph
Humidity: 36%   Direction: 160°SSE
Pressure: 30.3"   Gusts: NA
Location:  31.34°N, 102.85°W
Report Text: KFST 280053Z AUTO 16010KT 10SM CLR 13/M02 A3030 RMK AO2 SLP243 T01331017
Loading
Personal Weather Stations






























Interactive Weather Map New forecast layout! Learn more

10-Day Weather Forecast

Advertisements
Track Severe Weather on mobile